Station Historical Data
Daily Summary for December 8, 2017 Units:  Metric    English   Both
« Previous Day
Next Day »
Daily Weekly Monthly Yearly Custom
  High: Low: Average:
Temperature: 5.9 °C 0.2 °C 1.4 °C
Dew Point: 0.5 °C -0.9 °C -0.6 °C
Humidity: 93% 63% 88%
Wind Speed: 5.6km/h 0km/h 1.1km/h
Wind Gust: 5.6km/h - -
Wind- - SSE
Pressure: 1020.5 hPa 1014.4 hPa -
Precipitation: 4.06 mm    
Historical Graphs
 
 
Tabular Data for December 8, 2017
Time Temperature Dew Point Pressure Wind Wind Speed Wind Gust Humidity Rainfall Rate (Hourly) Conditions
00:07 5.9 °C -0.4 °C 1020.5 hPa Calm     64% 0 mm CLR
00:12 5.8 °C -0.7 °C 1020.2 hPa Calm     63% 0 mm CLR
00:17 5.8 °C -0.7 °C 1020.2 hPa Calm     63% 0 mm CLR
00:22 5.8 °C -0.7 °C 1019.9 hPa Calm     63% 0 mm CLR
00:27 5.8 °C -0.5 °C 1019.9 hPa Calm     64% 0 mm CLR
00:33 5.7 °C -0.6 °C 1019.5 hPa North 1.9 km/h 1.9 km/h 64% 0 mm CLR
00:38 5.8 °C -0.7 °C 1019.5 hPa NNE 1.9 km/h   63% 0 mm CLR
00:43 5.7 °C -0.8 °C 1019.5 hPa South 1.9 km/h   63% 0 mm CLR
00:53 5.7 °C -0.6 °C 1018.5 hPa East 1.9 km/h   64% 0 mm CLR
00:58 5.7 °C -0.8 °C 1018.8 hPa East 1.9 km/h   63% 0 mm CLR
01:03 5.7 °C -0.4 °C 1018.8 hPa SE 1.9 km/h   65% 0 mm CLR
01:08 5.7 °C -0.6 °C 1019.2 hPa Calm     64% 0 mm CLR
01:13 5.6 °C -0.9 °C 1019.2 hPa East 1.9 km/h   63% 0 mm -RA
01:19 5.6 °C -0.4 °C 1018.8 hPa East 1.9 km/h 1.9 km/h 65% 0 mm -RA
01:24 5.6 °C -0.5 °C 1018.2 hPa SSW 1.9 km/h   65% 0 mm -RA
01:34 5.5 °C -0.8 °C 1019.2 hPa West 1.9 km/h   64% 0 mm SCT
01:39 5.5 °C -0.8 °C 1018.8 hPa WNW 1.9 km/h   64% 0 mm SCT
01:44 5.5 °C -0.8 °C 1019.2 hPa Calm     64% 0 mm -RA
01:49 5.4 °C -0.6 °C 1019.5 hPa Calm     65% 0 mm -RA
01:59 5.4 °C -0.3 °C 1019.5 hPa West 1.9 km/h   67% 0 mm -RA
02:15 5.3 °C -0.3 °C 1019.9 hPa Calm     67% 0 mm BKN
02:25 5.2 °C -0.6 °C 1020.2 hPa Calm   1.6 km/h 66% 0 mm BKN
02:30 5.2 °C -0.4 °C 1020.2 hPa West 1.9 km/h   67% 0 mm BKN
02:35 5.1 °C -0.7 °C 1020.2 hPa West 3.7 km/h 3.7 km/h 66% 0 mm BKN
02:45 4.9 °C -0.7 °C 1020.5 hPa North 3.7 km/h 3.7 km/h 67% 0 mm BKN
02:55 4.8 °C -0.6 °C 1020.2 hPa East 1.9 km/h   68% 0 mm BKN
03:00 4.7 °C -0.7 °C 1019.5 hPa East 1.9 km/h   68% 0 mm BKN
03:06 4.7 °C -0.7 °C 1019.5 hPa SE 5.6 km/h 5.6 km/h 68% 0 mm CLR
03:11 4.5 °C -0.5 °C 1019.9 hPa South 5.6 km/h 5.6 km/h 70% 0 mm CLR
03:21 4.1 °C -0.2 °C 1019.9 hPa South 5.6 km/h 5.6 km/h 74% 0 mm CLR
03:26 3.9 °C 0.1 °C 1019.9 hPa SSE 3.7 km/h 3.7 km/h 76% 0 mm CLR
03:41 3.3 °C 0.1 °C 1019.5 hPa ESE 5.6 km/h   79% 0 mm CLR
03:46 3.3 °C 0.2 °C 1019.5 hPa ESE 5.6 km/h   80% 0 mm CLR
03:51 3.2 °C 0.2 °C 1019.9 hPa SSE 5.6 km/h 5.6 km/h 81% 0 mm CLR
04:17 2.9 °C 0.3 °C 1019.5 hPa East 5.6 km/h 5.6 km/h 83% 0 mm -RA
04:27 2.7 °C 0.3 °C 1019.9 hPa ESE 3.7 km/h 3.7 km/h 84% 0 mm -RA
04:32 2.7 °C 0.4 °C 1019.5 hPa East 3.7 km/h   85% 0 mm -RA
04:37 2.7 °C 0.4 °C 1019.5 hPa SW 1.9 km/h   85% 0 mm OVC
04:42 2.6 °C 0.3 °C 1019.9 hPa WSW 1.9 km/h 1.9 km/h 85% 0 mm OVC
04:47 2.6 °C 0.3 °C 1019.9 hPa WSW 1.9 km/h   85% 0 mm OVC
04:52 2.6 °C 0.4 °C 1019.5 hPa WSW 1.9 km/h   86% 0 mm OVC
04:57 2.5 °C 0.4 °C 1019.5 hPa SW 1.9 km/h   86% 0 mm OVC
05:02 2.4 °C 0.3 °C 1019.5 hPa SSW 1.9 km/h   86% 0 mm BKN
05:17 2.3 °C 0.4 °C 1018.8 hPa West 1.9 km/h   87% 0 mm BKN
05:22 2.3 °C 0.3 °C 1018.8 hPa West 1.9 km/h   87% 0 mm BKN
05:28 2.3 °C 0.3 °C 1018.8 hPa Calm     87% 0 mm BKN
05:33 2.3 °C 0.5 °C 1018.8 hPa ESE 1.9 km/h   88% 0 mm BKN
05:43 2.2 °C 0.4 °C 1018.8 hPa Calm     88% 0 mm SCT
05:48 2.2 °C 0.2 °C 1018.8 hPa SW 3.7 km/h 3.7 km/h 87% 0 mm SCT
05:53 2.2 °C 0.2 °C 1018.8 hPa ESE 3.7 km/h 3.7 km/h 87% 0 mm SCT
05:59 2.1 °C 0.3 °C 1018.8 hPa SW 3.7 km/h   88% 0 mm SCT
06:04 2.1 °C 0.3 °C 1018.5 hPa West 1.9 km/h 1.9 km/h 88% 0 mm BKN
06:14 2 °C 0.2 °C 1018.2 hPa SE 1.9 km/h 1.9 km/h 88% 0 mm BKN
06:19 1.9 °C 0.2 °C 1018.5 hPa WNW 1.9 km/h   88% 0 mm BKN
06:24 1.9 °C 0.2 °C 1018.2 hPa NE 1.9 km/h   88% 0 mm BKN
06:29 1.9 °C 0.1 °C 1018.5 hPa ESE 1.9 km/h   88% 0 mm BKN
06:34 1.9 °C 0.1 °C 1018.8 hPa ESE 1.9 km/h   88% 0 mm BKN
06:39 1.8 °C 0 °C 1018.5 hPa ESE 3.7 km/h   88% 0 mm BKN
06:44 1.7 °C 0.1 °C 1018.5 hPa NE 3.7 km/h   89% 0 mm SCT
06:49 1.7 °C 0.1 °C 1018.5 hPa NW 1.9 km/h   89% 0 mm SCT
07:00 1.5 °C -0.1 °C 1018.5 hPa NE 1.9 km/h 1.9 km/h 89% 0 mm SCT
07:05 1.4 °C -0.2 °C 1018.8 hPa Calm   1.6 km/h 89% 0 mm SCT
07:10 1.3 °C -0.3 °C 1018.5 hPa Calm     89% 0 mm SCT
07:20 1.1 °C -0.5 °C 1019.2 hPa SSW 1.9 km/h   89% 0 mm -RA
07:25 1 °C -0.6 °C 1019.2 hPa NE 1.9 km/h   89% 0 mm -RA
07:30 0.9 °C -0.6 °C 1019.5 hPa ENE 1.9 km/h   90% 0 mm -RA
07:35 0.8 °C -0.6 °C 1019.2 hPa SE 1.9 km/h   90% 0 mm -RA
07:50 0.7 °C -0.7 °C 1019.2 hPa SE 1.9 km/h   90% 0 mm -RA
07:55 0.7 °C -0.8 °C 1018.8 hPa SSW 3.7 km/h   90% 0 mm -RA
08:00 0.7 °C -0.8 °C 1018.8 hPa WSW 3.7 km/h   90% 0 mm -RA
08:11 0.7 °C -0.6 °C 1019.2 hPa NW 1.9 km/h 1.9 km/h 91% 0 mm -RA
08:16 0.6 °C -0.7 °C 1019.2 hPa WNW 1.9 km/h 1.9 km/h 91% 0 mm -RA
08:21 0.6 °C -0.7 °C 1019.2 hPa WNW 1.9 km/h 1.9 km/h 91% 0 mm -RA
08:26 0.6 °C -0.7 °C 1019.2 hPa East 1.9 km/h   91% 0 mm -RA
08:31 0.6 °C -0.7 °C 1018.8 hPa ESE 5.6 km/h 5.6 km/h 91% 0 mm -RA
08:36 0.6 °C -0.7 °C 1019.5 hPa South 5.6 km/h 5.6 km/h 91% 0 mm -RA
08:41 0.6 °C -0.7 °C 1019.2 hPa SSW 3.7 km/h 3.7 km/h 91% 0 mm -RA
08:46 0.6 °C -0.7 °C 1018.8 hPa WNW 3.7 km/h   91% 0.25 mm -RA
08:56 0.6 °C -0.7 °C 1019.2 hPa ESE 3.7 km/h   91% 0.25 mm -SN
09:01 0.6 °C -0.7 °C 1018.8 hPa ENE 1.9 km/h   91% 0.25 mm -SN
09:06 0.6 °C -0.7 °C 1019.2 hPa East 1.9 km/h 1.9 km/h 91% 0.25 mm -SN
09:11 0.6 °C -0.7 °C 1019.5 hPa ESE 1.9 km/h   91% 0.25 mm -SN
09:16 0.6 °C -0.7 °C 1019.2 hPa East 1.9 km/h   91% 0.25 mm -SN
09:26 0.5 °C -0.8 °C 1019.5 hPa South 1.9 km/h   91% 0.25 mm -SN
09:37 0.5 °C -0.8 °C 1019.2 hPa Calm     91% 0.25 mm -SN
09:42 0.5 °C -0.8 °C 1019.2 hPa West 1.9 km/h 1.9 km/h 91% 0.25 mm -SN
09:47 0.5 °C -0.8 °C 1019.9 hPa WSW 1.9 km/h   91% 0 mm -SN
09:52 0.5 °C -0.8 °C 1019.9 hPa WSW 1.9 km/h   91% 0 mm -SN
09:57 0.5 °C -0.8 °C 1019.2 hPa WSW 1.9 km/h   91% 0 mm -SN
10:02 0.5 °C -0.8 °C 1019.2 hPa West 1.9 km/h   91% 0 mm -SN
10:07 0.5 °C -0.8 °C 1019.2 hPa North 1.9 km/h   91% 0 mm -SN
10:17 0.5 °C -0.8 °C 1019.2 hPa East 1.9 km/h   91% 0 mm OVC
10:27 0.5 °C -0.8 °C 1019.5 hPa East 1.9 km/h   91% 0 mm OVC
10:38 0.5 °C -0.7 °C 1019.5 hPa Calm   0.3 km/h 92% 0 mm OVC
10:43 0.5 °C -0.7 °C 1019.5 hPa ESE 1.9 km/h   92% 0 mm OVC
10:48 0.5 °C -0.7 °C 1019.9 hPa ESE 1.9 km/h   92% 0 mm OVC
10:53 0.5 °C -0.7 °C 1019.9 hPa Calm     92% 0 mm OVC
11:03 0.5 °C -0.7 °C 1019.2 hPa ESE 1.9 km/h   92% 0 mm -SN
11:08 0.5 °C -0.7 °C 1019.2 hPa ESE 1.9 km/h   92% 0 mm -SN
11:13 0.5 °C -0.7 °C 1018.8 hPa East 1.9 km/h   92% 0 mm -SN
11:23 0.5 °C -0.7 °C 1018.8 hPa East 5.6 km/h   92% 0 mm -SN
11:28 0.5 °C -0.7 °C 1019.2 hPa NNE 5.6 km/h   92% 0 mm -SN
11:33 0.5 °C -0.7 °C 1019.5 hPa West 1.9 km/h   92% 0 mm -SN
11:39 0.4 °C -0.7 °C 1019.5 hPa SSW 1.9 km/h   92% 0 mm -SN
11:49 0.4 °C -0.7 °C 1019.5 hPa South 1.9 km/h   92% 0 mm OVC
11:54 0.4 °C -0.7 °C 1019.5 hPa South 1.9 km/h   92% 0 mm OVC
11:59 0.4 °C -0.7 °C 1019.5 hPa East 1.9 km/h   92% 0 mm OVC
12:04 0.4 °C -0.7 °C 1019.9 hPa Calm     92% 0 mm OVC
12:09 0.4 °C -0.7 °C 1018.8 hPa Calm     92% 0 mm OVC
12:24 0.4 °C -0.7 °C 1018.8 hPa East 1.9 km/h 1.9 km/h 92% 0 mm OVC
12:29 0.4 °C -0.7 °C 1018.5 hPa ENE 1.9 km/h   92% 0 mm OVC
12:34 0.4 °C -0.7 °C 1018.2 hPa NNW 1.9 km/h   92% 0 mm OVC
12:39 0.5 °C -0.7 °C 1018.2 hPa Calm     92% 0 mm OVC
12:45 0.5 °C -0.7 °C 1017.8 hPa Calm   0.2 km/h 92% 0 mm OVC
12:55 0.6 °C -0.6 °C 1017.8 hPa Calm     92% 0 mm OVC
13:00 0.6 °C -0.6 °C 1017.8 hPa Calm     92% 0 mm OVC
13:05 0.6 °C -0.6 °C 1017.5 hPa Calm     92% 0 mm OVC
13:10 0.6 °C -0.6 °C 1016.5 hPa Calm     92% 0 mm OVC
13:15 0.6 °C -0.6 °C 1016.8 hPa NE 1.9 km/h   92% 0 mm OVC
13:20 0.6 °C -0.6 °C 1017.2 hPa ENE 1.9 km/h   92% 0 mm OVC
13:25 0.6 °C -0.6 °C 1017.2 hPa East 1.9 km/h   92% 0 mm -SN
13:30 0.6 °C -0.6 °C 1016.5 hPa East 1.9 km/h   92% 0 mm -SN
13:34 0.6 °C -0.6 °C 1016.1 hPa Calm     92% 0 mm RA
13:40 0.6 °C -0.6 °C 1016.1 hPa Calm     92% 0 mm -SN
13:44 0.6 °C -0.6 °C 1016.1 hPa Calm   1.6 km/h 92% 0 mm
13:46 0.6 °C -0.6 °C 1016.1 hPa SE 1.9 km/h   92% 0 mm -SN
13:51 0.6 °C -0.6 °C 1016.1 hPa SSW 1.9 km/h   92% 0 mm -SN
13:54 0.6 °C -0.6 °C 1016.1 hPa Calm     92% 0 mm
14:01 0.6 °C -0.6 °C 1015.8 hPa Calm     92% 0 mm -RA
14:04 0.6 °C -0.6 °C 1015.5 hPa Calm     92% 0 mm
14:06 0.6 °C -0.6 °C 1015.5 hPa Calm     92% 0 mm -RA
14:14 0.6 °C -0.6 °C 1015.1 hPa Calm     92% 0 mm
14:16 0.6 °C -0.6 °C 1015.1 hPa Calm     92% 0 mm -RA
14:24 0.6 °C -0.6 °C 1015.1 hPa Calm   1.6 km/h 92% 0.25 mm
14:31 0.6 °C -0.6 °C 1015.1 hPa SSE 1.9 km/h   92% 0.25 mm -RA
14:34 0.6 °C -0.6 °C 1014.8 hPa Calm     92% 0 mm
14:36 0.6 °C -0.6 °C 1014.4 hPa Calm     92% 0.25 mm -RA
14:41 0.6 °C -0.6 °C 1014.8 hPa Calm     92% 0.25 mm -RA
14:44 0.6 °C -0.6 °C 1014.8 hPa Calm     92% 0 mm
14:46 0.6 °C -0.6 °C 1014.8 hPa Calm     92% 0.25 mm -RA
14:52 0.5 °C -0.7 °C 1014.8 hPa Calm     92% 0.51 mm -RA
14:54 0.5 °C -0.7 °C 1014.4 hPa Calm     92% 0.25 mm
14:57 0.5 °C -0.7 °C 1014.4 hPa Calm     92% 0.51 mm -RA
15:02 0.5 °C -0.7 °C 1014.8 hPa Calm     92% 0.76 mm -RA
15:04 0.5 °C -0.7 °C 1014.8 hPa Calm     92% 0.25 mm
15:07 0.5 °C -0.7 °C 1014.8 hPa Calm     92% 1.02 mm -RA
15:18 0.6 °C -0.6 °C 1016.1 hPa Calm     92% 1.27 mm RA
15:23 0.5 °C -0.7 °C 1015.8 hPa Calm     92% 1.52 mm -RA
15:33 0.5 °C -0.7 °C 1015.8 hPa Calm     92% 1.52 mm -RA
15:38 0.4 °C -0.7 °C 1015.5 hPa SE 1.9 km/h   92% 1.52 mm -RA
15:43 0.4 °C -0.7 °C 1015.8 hPa South 1.9 km/h   92% 1.78 mm -RA
15:48 0.4 °C -0.7 °C 1016.1 hPa Calm     92% 1.78 mm -RA
15:53 0.4 °C -0.7 °C 1016.5 hPa Calm     92% 1.78 mm -RA
15:59 0.4 °C -0.7 °C 1015.8 hPa South 1.9 km/h   92% 1.52 mm -SN
16:04 0.4 °C -0.8 °C 1015.8 hPa SW 1.9 km/h   92% 1.27 mm -SN
16:09 0.4 °C -0.8 °C 1016.1 hPa Calm     92% 1.27 mm -SN
16:19 0.4 °C -0.8 °C 1016.5 hPa Calm     92% 1.02 mm -SN
16:24 0.4 °C -0.8 °C 1015.5 hPa Calm     92% 0.76 mm -SN
16:29 0.4 °C -0.8 °C 1015.8 hPa Calm     92% 0.51 mm -SN
16:39 0.4 °C -0.8 °C 1016.1 hPa Calm     92% 0.51 mm -SN
16:44 0.4 °C -0.8 °C 1015.8 hPa Calm     92% 0.25 mm -SN
16:50 0.4 °C -0.8 °C 1015.5 hPa Calm     92% 0.25 mm -SN
17:00 0.4 °C -0.8 °C 1015.8 hPa Calm     92% 0.51 mm -SN
17:05 0.4 °C -0.8 °C 1015.8 hPa Calm     92% 0.51 mm -SN
17:10 0.3 °C -0.8 °C 1016.1 hPa Calm     92% 0.51 mm -SN
17:15 0.3 °C -0.8 °C 1016.1 hPa Calm     92% 0.51 mm -SN
17:19 0.3 °C -0.8 °C 1015.8 hPa Calm     92% 0.25 mm -SN
17:25 0.3 °C -0.8 °C 1015.8 hPa Calm     92% 0.25 mm -SN
17:30 0.3 °C -0.8 °C 1015.8 hPa Calm     92% 0.25 mm -SN
17:40 0.3 °C -0.9 °C 1015.1 hPa Calm     92% 0 mm -SN
17:45 0.3 °C -0.9 °C 1015.1 hPa Calm     92% 0.25 mm -SN
17:50 0.3 °C -0.9 °C 1014.8 hPa Calm     92% 0.25 mm -SN
17:55 0.3 °C -0.9 °C 1015.1 hPa Calm     92% 0.25 mm -SN
18:00 0.3 °C -0.9 °C 1015.1 hPa Calm     92% 0.25 mm -SN
18:05 0.3 °C -0.9 °C 1015.5 hPa Calm     92% 0.25 mm OVC
18:10 0.3 °C -0.9 °C 1015.5 hPa Calm     92% 0.25 mm OVC
18:15 0.3 °C -0.9 °C 1015.8 hPa Calm     92% 0.25 mm -RA
18:20 0.3 °C -0.9 °C 1015.5 hPa Calm     92% 0.25 mm -RA
18:26 0.3 °C -0.9 °C 1015.5 hPa Calm     92% 0.25 mm -RA
18:36 0.3 °C -0.8 °C 1015.8 hPa Calm     92% 0.25 mm -RA
18:41 0.3 °C -0.8 °C 1015.8 hPa Calm     92% 0.25 mm -RA
18:46 0.3 °C -0.8 °C 1016.1 hPa Calm     92% 0.25 mm -SN
19:02 0.3 °C -0.8 °C 1016.5 hPa Calm     92% 0 mm -SN
19:07 0.3 °C -0.8 °C 1016.5 hPa SSE 1.9 km/h   92% 0.25 mm -SN
19:12 0.3 °C -0.8 °C 1016.5 hPa West 1.9 km/h   92% 0.25 mm -SN
19:17 0.3 °C -0.8 °C 1016.5 hPa Calm     92% 0.25 mm -SN
19:22 0.3 °C -0.8 °C 1016.8 hPa Calm     92% 0.25 mm -SN
19:27 0.3 °C -0.8 °C 1016.8 hPa Calm     92% 0.25 mm -SN
19:37 0.3 °C -0.8 °C 1017.5 hPa Calm     92% 0.25 mm -SN
19:42 0.3 °C -0.8 °C 1016.8 hPa Calm     92% 0.25 mm -SN
19:47 0.3 °C -0.8 °C 1016.5 hPa Calm     92% 0.25 mm -SN
19:52 0.3 °C -0.8 °C 1016.8 hPa Calm     92% 0.25 mm -SN
19:57 0.3 °C -0.7 °C 1017.2 hPa Calm     93% 0.25 mm -SN
20:02 0.3 °C -0.7 °C 1016.5 hPa Calm     93% 0.25 mm -SN
20:13 0.3 °C -0.7 °C 1016.8 hPa Calm     93% 0 mm -SN
20:18 0.3 °C -0.9 °C 1016.5 hPa Calm     92% 0 mm -SN
20:43 0.2 °C -0.8 °C 1015.8 hPa Calm     93% 0.25 mm -SN
20:53 0.2 °C -0.8 °C 1015.8 hPa Calm     93% 0.25 mm -SN
20:58 0.2 °C -0.8 °C 1015.8 hPa Calm     93% 0.25 mm -SN
21:09 0.3 °C -0.7 °C 1016.1 hPa Calm     93% 0.25 mm -SN
21:14 0.3 °C -0.7 °C 1015.8 hPa Calm     93% 0.25 mm -SN
21:19 0.3 °C -0.7 °C 1015.5 hPa Calm     93% 0.25 mm -SN
21:24 0.3 °C -0.7 °C 1015.5 hPa Calm     93% 0.25 mm -SN
21:29 0.3 °C -0.7 °C 1015.5 hPa Calm     93% 0.25 mm -SN
21:39 0.3 °C -0.7 °C 1015.5 hPa Calm     93% 0 mm -SN
21:44 0.3 °C -0.7 °C 1015.1 hPa Calm     93% 0 mm -SN
21:49 0.3 °C -0.7 °C 1015.5 hPa Calm     93% 0 mm -SN
22:05 0.4 °C -0.6 °C 1016.1 hPa Calm     93% 0 mm -SN
22:10 0.4 °C -0.6 °C 1016.5 hPa Calm     93% 0 mm -SN
22:16 0.4 °C -0.6 °C 1016.8 hPa Calm     93% 0 mm -SN
22:22 0.3 °C -0.7 °C 1017.2 hPa Calm     93% 0 mm -SN
22:27 0.3 °C -0.7 °C 1017.2 hPa Calm     93% 0.25 mm -SN
22:29 0.3 °C -0.7 °C 1017.2 hPa Calm     93% 0.25 mm -SN
22:33 0.3 °C -0.7 °C 1017.2 hPa Calm     93% 0.25 mm -SN
22:38 0.3 °C -0.7 °C 1017.2 hPa Calm     93% 0.25 mm -SN
22:43 0.3 °C -0.7 °C 1017.2 hPa Calm     93% 0.25 mm -SN
22:49 0.3 °C -0.7 °C 1017.5 hPa Calm     93% 0.25 mm -SN
22:54 0.3 °C -0.7 °C 1017.5 hPa Calm     93% 0.25 mm -SN
22:59 0.3 °C -0.7 °C 1017.2 hPa Calm     93% 0.25 mm -SN
23:09 0.3 °C -0.7 °C 1016.8 hPa Calm     93% 0.25 mm -SN
23:14 0.3 °C -0.7 °C 1017.5 hPa Calm     93% 0.25 mm -SN
23:19 0.3 °C -0.7 °C 1016.5 hPa Calm     93% 0.25 mm -SN
23:24 0.3 °C -0.7 °C 1017.2 hPa Calm     93% 0 mm -SN
23:29 0.3 °C -0.7 °C 1016.8 hPa Calm     93% 0 mm -SN
23:34 0.3 °C -0.7 °C 1016.8 hPa Calm     93% 0 mm -SN
23:39 0.3 °C -0.7 °C 1015.8 hPa Calm     93% 0 mm -SN
23:44 0.2 °C -0.8 °C 1015.8 hPa Calm     93% 0 mm -SN
23:50 0.3 °C -0.7 °C 1015.5 hPa Calm     93% 0 mm -SN
23:55 0.2 °C -0.8 °C 1015.5 hPa Calm     93% 0 mm -SN
Piedmont Bend
Compliments of Weather Underground - 4 mb